Time;durP1;ratioP1;P1;durP2;ratioP2;P2;SDS_P1;SDS_P2;PMS_P1;PMS_P2;Temp;Humidity;BMP_temperature;BMP_pressure;BME280_temperature;BME280_humidity;BME280_pressure;Samples;Min_cycle;Max_cycle;Signal;HPM_P1;HPM_P2
2022/04/20 00:02:07;;;;;;;1999.90;999.90;;;5.10;99.90;;;;;;5107396;28;20477;-66
2022/04/20 00:04:35;;;;;;;1999.90;999.90;;;5.20;99.90;;;;;;5108468;28;20576;-63
2022/04/20 00:07:02;;;;;;;1999.90;999.90;;;5.20;99.90;;;;;;5108335;28;20453;-65
2022/04/20 00:09:28;;;;;;;1999.90;999.90;;;5.30;99.90;;;;;;5094215;28;20444;-65
2022/04/20 00:11:55;;;;;;;1999.90;999.90;;;5.20;99.90;;;;;;5087057;28;21166;-64
2022/04/20 00:14:23;;;;;;;1999.90;999.90;;;4.80;99.90;;;;;;5087884;28;20441;-63
2022/04/20 00:16:49;;;;;;;1999.90;999.90;;;4.60;99.90;;;;;;5087628;28;20452;-65
2022/04/20 00:19:16;;;;;;;1999.90;999.90;;;4.40;99.90;;;;;;5087275;28;20506;-65
2022/04/20 00:21:43;;;;;;;1999.90;999.90;;;4.20;99.90;;;;;;5087476;28;20464;-65
2022/04/20 00:24:09;;;;;;;1999.90;999.90;;;4.10;99.90;;;;;;5089826;28;20529;-64
2022/04/20 00:26:36;;;;;;;1999.90;999.90;;;4.10;99.90;;;;;;5090436;28;20480;-65
2022/04/20 00:29:03;;;;;;;1999.90;999.90;;;4.10;99.90;;;;;;5090335;28;20969;-65
2022/04/20 00:31:30;;;;;;;1999.90;999.90;;;3.80;99.90;;;;;;5090448;28;20517;-65
2022/04/20 00:33:57;;;;;;;1999.90;999.90;;;3.70;99.90;;;;;;5093135;28;20444;-66
2022/04/20 00:36:24;;;;;;;1999.90;999.90;;;3.80;99.90;;;;;;5097734;28;20432;-65
2022/04/20 00:38:51;;;;;;;1999.90;999.90;;;3.90;99.90;;;;;;5098003;28;20444;-66
2022/04/20 00:41:17;;;;;;;1999.90;999.90;;;4.10;99.90;;;;;;5094211;28;20468;-65
2022/04/20 00:43:45;;;;;;;1999.90;999.90;;;4.10;99.90;;;;;;5093211;28;20530;-65
2022/04/20 00:46:13;;;;;;;1999.90;999.90;;;4.20;99.90;;;;;;5094012;28;20484;-65
2022/04/20 00:48:42;;;;;;;1999.90;999.90;;;4.30;99.90;;;;;;5094044;28;20444;-65
2022/04/20 00:51:09;;;;;;;1999.90;999.90;;;4.30;99.90;;;;;;5093384;28;20472;-65
2022/04/20 00:53:36;;;;;;;1999.90;999.90;;;4.30;99.90;;;;;;5092913;28;20505;-65
2022/04/20 00:56:03;;;;;;;1999.90;999.90;;;4.10;99.90;;;;;;5092442;28;21021;-65
2022/04/20 00:58:29;;;;;;;1999.90;999.90;;;4.10;99.90;;;;;;5091378;28;20501;-64
2022/04/20 01:00:56;;;;;;;1999.90;999.90;;;4.10;99.90;;;;;;5091302;28;20489;-64
2022/04/20 01:03:23;;;;;;;1999.90;999.90;;;4.00;99.90;;;;;;5090949;28;21026;-64
2022/04/20 01:05:51;;;;;;;1999.90;999.90;;;3.90;99.90;;;;;;5090928;28;20480;-65
2022/04/20 01:08:17;;;;;;;1999.90;999.90;;;3.80;99.90;;;;;;5090001;28;20448;-65
2022/04/20 01:10:44;;;;;;;1999.90;999.90;;;3.90;99.90;;;;;;5089634;28;20494;-65
2022/04/20 01:13:11;;;;;;;1999.90;999.90;;;3.90;99.90;;;;;;5088902;28;20509;-67
2022/04/20 01:15:38;;;;;;;1999.90;999.90;;;3.80;99.90;;;;;;5088866;28;20501;-65
2022/04/20 01:18:12;;;;;;;1999.90;999.90;;;3.90;99.90;;;;;;5089047;28;20456;-65
2022/04/20 01:20:40;;;;;;;1999.90;999.90;;;3.90;99.90;;;;;;5089237;28;20471;-65
2022/04/20 01:23:07;;;;;;;1999.90;999.90;;;4.20;99.90;;;;;;5089554;28;21139;-65
2022/04/20 01:25:34;;;;;;;1999.90;999.90;;;4.30;99.90;;;;;;5088656;28;20468;-65
2022/04/20 01:28:01;;;;;;;1999.90;999.90;;;4.00;99.90;;;;;;5089519;28;20448;-64
2022/04/20 01:30:28;;;;;;;1999.90;999.90;;;3.80;99.90;;;;;;5089898;28;20547;-64
2022/04/20 01:32:55;;;;;;;1999.90;999.90;;;3.70;99.90;;;;;;5088815;28;20954;-64
2022/04/20 01:35:22;;;;;;;1999.90;999.90;;;3.80;99.90;;;;;;5088393;28;20547;-65
2022/04/20 01:37:50;;;;;;;1999.90;999.90;;;3.70;99.90;;;;;;5089659;28;20449;-64
2022/04/20 01:40:17;;;;;;;1999.90;999.90;;;3.50;99.90;;;;;;5089155;28;20468;-64
2022/04/20 01:42:44;;;;;;;1999.90;999.90;;;3.60;99.90;;;;;;5088870;28;20464;-65
2022/04/20 01:45:11;;;;;;;1999.90;999.90;;;3.60;99.90;;;;;;5087911;28;20996;-64
2022/04/20 01:47:37;;;;;;;1999.90;999.90;;;3.60;99.90;;;;;;5088468;28;20973;-64
2022/04/20 01:50:05;;;;;;;1999.90;999.90;;;3.60;99.90;;;;;;5088356;28;20479;-64
2022/04/20 01:52:32;;;;;;;1999.90;999.90;;;3.70;99.90;;;;;;5089376;28;20452;-64
2022/04/20 01:55:00;;;;;;;1999.90;999.90;;;3.80;99.90;;;;;;5088975;28;20535;-64
2022/04/20 01:57:27;;;;;;;1999.90;999.90;;;3.90;99.90;;;;;;5089324;28;20448;-65
2022/04/20 01:59:54;;;;;;;1999.90;999.90;;;3.90;99.90;;;;;;5088605;28;20441;-64
2022/04/20 02:02:35;;;;;;;1999.90;999.90;;;3.80;99.90;;;;;;5087764;28;20444;-64
2022/04/20 02:05:03;;;;;;;1999.90;999.90;;;3.70;99.90;;;;;;5088217;28;21223;-65
2022/04/20 02:07:31;;;;;;;1999.90;999.90;;;3.70;99.90;;;;;;5089943;28;21063;-65
2022/04/20 02:09:58;;;;;;;1999.90;999.90;;;3.80;99.90;;;;;;5087924;28;20447;-65
2022/04/20 02:12:26;;;;;;;1999.90;999.90;;;3.80;99.90;;;;;;5087391;28;20505;-65
2022/04/20 02:14:53;;;;;;;1999.90;999.90;;;3.70;99.90;;;;;;5088081;28;20448;-64
2022/04/20 02:17:20;;;;;;;1999.90;999.90;;;3.60;99.90;;;;;;5088577;28;20478;-65
2022/04/20 02:19:47;;;;;;;1999.90;999.90;;;3.70;99.90;;;;;;5087811;28;20501;-65
2022/04/20 02:22:14;;;;;;;1999.90;999.90;;;3.80;99.90;;;;;;5088891;28;20808;-64
2022/04/20 02:24:41;;;;;;;1999.90;999.90;;;3.90;99.90;;;;;;5087731;28;20510;-65
2022/04/20 02:27:09;;;;;;;1999.90;999.90;;;4.00;99.90;;;;;;5086731;28;20777;-65
2022/04/20 02:29:37;;;;;;;1999.90;999.90;;;4.10;99.90;;;;;;5087686;28;20532;-65
2022/04/20 02:32:04;;;;;;;1999.90;999.90;;;3.90;99.90;;;;;;5087288;28;20981;-65
2022/04/20 02:34:31;;;;;;;1999.90;999.90;;;3.70;99.90;;;;;;5088097;28;20918;-65
2022/04/20 02:36:58;;;;;;;1999.90;999.90;;;3.70;99.90;;;;;;5088757;28;20494;-63
2022/04/20 02:39:26;;;;;;;1999.90;999.90;;;3.60;99.90;;;;;;5087349;28;20445;-65
2022/04/20 02:41:53;;;;;;;1999.90;999.90;;;3.50;99.90;;;;;;5087079;28;20509;-64
2022/04/20 02:44:19;;;;;;;1999.90;999.90;;;3.40;99.90;;;;;;5090719;28;20452;-65
2022/04/20 02:46:48;;;;;;;1999.90;999.90;;;3.30;99.90;;;;;;5090237;28;20489;-64
2022/04/20 02:49:15;;;;;;;1999.90;999.90;;;3.40;99.90;;;;;;5089865;28;20448;-65
2022/04/20 02:51:42;;;;;;;1999.90;999.90;;;3.50;99.90;;;;;;5088649;28;20480;-65
2022/04/20 02:54:09;;;;;;;1999.90;999.90;;;3.50;99.90;;;;;;5087317;28;20867;-64
2022/04/20 02:56:35;;;;;;;1999.90;999.90;;;3.60;99.90;;;;;;5086974;28;20498;-65
2022/04/20 02:59:02;;;;;;;1999.90;999.90;;;3.50;99.90;;;;;;5087376;28;20448;-65
2022/04/20 03:01:30;;;;;;;1999.90;999.90;;;3.30;99.90;;;;;;5086489;28;20460;-64
2022/04/20 03:03:59;;;;;;;1999.90;999.90;;;3.10;99.90;;;;;;5086882;28;20449;-65
2022/04/20 03:06:27;;;;;;;1999.90;999.90;;;2.90;99.90;;;;;;5087831;28;20495;-65
2022/04/20 03:08:54;;;;;;;1999.90;999.90;;;3.00;99.90;;;;;;5090345;28;21035;-65
2022/04/20 03:11:20;;;;;;;1999.90;999.90;;;2.90;99.90;;;;;;5090646;28;20505;-64
2022/04/20 03:13:47;;;;;;;1999.90;999.90;;;2.80;99.90;;;;;;5090924;28;20449;-65
2022/04/20 03:16:14;;;;;;;1999.90;999.90;;;2.90;99.90;;;;;;5091025;28;20525;-65
2022/04/20 03:18:41;;;;;;;1999.90;999.90;;;2.80;99.90;;;;;;5091234;28;20444;-65
2022/04/20 03:21:09;;;;;;;1999.90;999.90;;;2.60;99.90;;;;;;5090990;28;20531;-65
2022/04/20 03:23:35;;;;;;;1999.90;999.90;;;2.60;99.90;;;;;;5086961;28;20445;-64
2022/04/20 03:26:03;;;;;;;1999.90;999.90;;;2.60;99.90;;;;;;5086451;28;20537;-64
2022/04/20 03:28:30;;;;;;;1999.90;999.90;;;2.60;99.90;;;;;;5087087;28;20448;-65
2022/04/20 03:30:57;;;;;;;1999.90;999.90;;;2.60;99.90;;;;;;5086786;28;21038;-64
2022/04/20 03:33:23;;;;;;;1999.90;999.90;;;2.70;99.90;;;;;;5086796;28;20497;-64
2022/04/20 03:35:50;;;;;;;1999.90;999.90;;;2.70;99.90;;;;;;5087415;28;20432;-65
2022/04/20 03:38:18;;;;;;;1999.90;999.90;;;2.60;99.90;;;;;;5086854;28;20452;-65
2022/04/20 03:40:46;;;;;;;1999.90;999.90;;;2.60;99.90;;;;;;5087177;28;20529;-64
2022/04/20 03:43:13;;;;;;;1999.90;999.90;;;2.70;99.90;;;;;;5086930;28;20535;-64
2022/04/20 03:45:40;;;;;;;1999.90;999.90;;;2.80;99.90;;;;;;5086843;28;21005;-65
2022/04/20 03:48:06;;;;;;;1999.90;999.90;;;2.90;99.90;;;;;;5086710;28;21002;-64
2022/04/20 03:50:34;;;;;;;1999.90;999.90;;;3.10;99.90;;;;;;5087405;28;20549;-64
2022/04/20 03:53:01;;;;;;;1999.90;999.90;;;3.10;99.90;;;;;;5090669;28;20449;-64
2022/04/20 03:55:29;;;;;;;1999.90;999.90;;;2.80;99.90;;;;;;5090067;28;20452;-65
2022/04/20 03:57:55;;;;;;;1999.90;999.90;;;2.80;99.90;;;;;;5090400;28;20502;-65
2022/04/20 04:00:24;;;;;;;1999.90;999.90;;;2.80;99.90;;;;;;5090890;28;20476;-64
2022/04/20 04:02:50;;;;;;;1999.90;999.90;;;2.90;99.90;;;;;;5074722;28;20863;-64
2022/04/20 04:05:17;;;;;;;1999.90;999.90;;;3.00;99.90;;;;;;5087524;28;20460;-65
2022/04/20 04:07:44;;;;;;;1999.90;999.90;;;3.10;99.90;;;;;;5086819;28;20539;-64
2022/04/20 04:10:10;;;;;;;1999.90;999.90;;;3.00;99.90;;;;;;5085965;28;20529;-65
2022/04/20 04:12:38;;;;;;;1999.90;999.90;;;2.80;99.90;;;;;;5085896;28;20478;-65
2022/04/20 04:15:07;;;;;;;1999.90;999.90;;;2.70;99.90;;;;;;5086058;28;20436;-65
2022/04/20 04:17:34;;;;;;;1999.90;999.90;;;2.70;99.90;;;;;;5086818;28;20441;-65
2022/04/20 04:20:00;;;;;;;1999.90;999.90;;;2.80;99.90;;;;;;5085597;28;20522;-65
2022/04/20 04:22:27;;;;;;;1999.90;999.90;;;2.90;99.90;;;;;;5087127;28;20854;-64
2022/04/20 04:24:54;;;;;;;1999.90;999.90;;;3.00;99.90;;;;;;5086315;28;20494;-65
2022/04/20 04:27:20;;;;;;;1999.90;999.90;;;2.80;99.90;;;;;;5086099;28;20933;-64
2022/04/20 04:29:48;;;;;;;1999.90;999.90;;;2.80;99.90;;;;;;5085668;28;21005;-65
2022/04/20 04:32:15;;;;;;;1999.90;999.90;;;2.90;99.90;;;;;;5085439;28;20444;-64
2022/04/20 04:34:42;;;;;;;1999.90;999.90;;;3.00;99.90;;;;;;5086174;28;20445;-64
2022/04/20 04:37:09;;;;;;;1999.90;999.90;;;3.10;99.90;;;;;;5088059;28;20445;-65
2022/04/20 04:39:36;;;;;;;1999.90;999.90;;;3.00;99.90;;;;;;5086600;28;20448;-64
2022/04/20 04:42:03;;;;;;;1999.90;999.90;;;3.00;99.90;;;;;;5086210;28;20468;-64
2022/04/20 04:44:32;;;;;;;1999.90;999.90;;;3.10;99.90;;;;;;5086721;28;20445;-65
2022/04/20 04:49:44;;;;;;;1999.90;999.90;;;2.70;99.90;;;;;;5087881;28;20447;-65
2022/04/20 04:52:12;;;;;;;1999.90;999.90;;;2.70;99.90;;;;;;5088113;28;20502;-65
2022/04/20 04:54:40;;;;;;;1999.90;999.90;;;2.90;99.90;;;;;;5091320;28;20498;-65
2022/04/20 04:57:07;;;;;;;1999.90;999.90;;;2.80;99.90;;;;;;5091290;28;20444;-65
2022/04/20 04:59:34;;;;;;;1999.90;999.90;;;3.00;99.90;;;;;;5090885;28;20536;-65
2022/04/20 05:02:02;;;;;;;1999.90;999.90;;;3.30;99.90;;;;;;5090441;28;20464;-65
2022/04/20 05:04:29;;;;;;;1999.90;999.90;;;3.40;99.90;;;;;;5089347;28;20452;-65
2022/04/20 05:06:56;;;;;;;1999.90;999.90;;;3.60;99.90;;;;;;5088416;28;20997;-65
2022/04/20 05:09:23;;;;;;;1999.90;999.90;;;3.90;99.90;;;;;;5086727;28;20456;-65
2022/04/20 05:11:50;;;;;;;1999.90;999.90;;;4.10;99.90;;;;;;5090865;28;20464;-66
2022/04/20 05:14:16;;;;;;;1999.90;999.90;;;4.30;99.90;;;;;;5091372;28;20460;-65
2022/04/20 05:16:43;;;;;;;1999.90;999.90;;;4.60;99.90;;;;;;5090784;28;20441;-66
2022/04/20 05:19:11;;;;;;;1999.90;999.90;;;5.00;99.90;;;;;;5091596;28;20445;-65
2022/04/20 05:21:38;;;;;;;1999.90;999.90;;;5.30;99.90;;;;;;5091072;28;20545;-65
2022/04/20 05:24:06;;;;;;;1999.90;999.90;;;5.60;99.90;;;;;;5091162;28;20452;-65
2022/04/20 05:26:32;;;;;;;1999.90;999.90;;;5.90;99.90;;;;;;5090667;28;20885;-65
2022/04/20 05:28:59;;;;;;;1999.90;999.90;;;6.20;99.90;;;;;;5091034;28;20893;-65
2022/04/20 05:31:26;;;;;;;1999.90;999.90;;;6.50;99.90;;;;;;5091106;28;20476;-65
2022/04/20 05:33:52;;;;;;;1999.90;999.90;;;6.90;99.90;;;;;;5090763;28;20445;-67
2022/04/20 05:36:20;;;;;;;1999.90;999.90;;;7.10;99.90;;;;;;5090730;28;20445;-66
2022/04/20 05:41:43;;;;;;;1999.90;999.90;;;7.30;99.90;;;;;;5090055;28;20514;-64
2022/04/20 05:44:11;;;;;;;1999.90;999.90;;;7.10;99.90;;;;;;5090611;28;20441;-65
2022/04/20 05:46:39;;;;;;;1999.90;999.90;;;7.50;99.90;;;;;;5090824;28;20484;-65
2022/04/20 05:49:06;;;;;;;1999.90;999.90;;;7.90;99.90;;;;;;5090416;28;20449;-66
2022/04/20 05:51:34;;;;;;;1999.90;999.90;;;8.30;99.90;;;;;;5090099;28;20542;-64
2022/04/20 05:54:01;;;;;;;1999.90;999.90;;;8.70;99.90;;;;;;5090059;28;20502;-63
2022/04/20 05:56:27;;;;;;;1999.90;999.90;;;9.20;99.90;;;;;;5090842;28;20441;-66
2022/04/20 05:58:54;;;;;;;1999.90;999.90;;;9.10;99.90;;;;;;5094009;28;20445;-66
2022/04/20 06:01:22;;;;;;;1999.90;999.90;;;9.30;99.90;;;;;;5094499;28;20484;-66
2022/04/20 06:03:49;;;;;;;1999.90;999.90;;;9.50;99.90;;;;;;5095010;28;20457;-68
2022/04/20 06:06:16;;;;;;;1999.90;999.90;;;9.40;99.90;;;;;;5091362;28;20467;-67
2022/04/20 06:08:44;;;;;;;1999.90;999.90;;;9.50;99.90;;;;;;5091580;28;20444;-67
2022/04/20 06:11:12;;;;;;;1999.90;999.90;;;9.40;99.90;;;;;;5089764;28;20468;-66
2022/04/20 06:13:38;;;;;;;1999.90;999.90;;;9.30;99.90;;;;;;5089539;28;20444;-66
2022/04/20 06:16:06;;;;;;;1999.90;999.90;;;9.40;99.90;;;;;;5090894;28;20448;-67
2022/04/20 06:18:33;;;;;;;1999.90;999.90;;;9.60;99.90;;;;;;5089983;28;20576;-67
2022/04/20 06:21:00;;;;;;;1999.90;999.90;;;9.60;99.90;;;;;;5089725;28;20514;-66
2022/04/20 06:23:26;;;;;;;1999.90;999.90;;;9.60;99.90;;;;;;5090067;28;20514;-66
2022/04/20 06:25:56;;;;;;;1999.90;999.90;;;9.40;99.90;;;;;;5092719;28;20460;-66
2022/04/20 06:28:24;;;;;;;1999.90;999.90;;;9.50;99.90;;;;;;5096998;28;20480;-66
2022/04/20 06:30:52;;;;;;;1999.90;999.90;;;9.50;99.90;;;;;;5094035;28;20500;-66
2022/04/20 06:33:18;;;;;;;1999.90;999.90;;;9.70;99.90;;;;;;5105747;28;20546;-66
2022/04/20 06:35:46;;;;;;;1999.90;999.90;;;9.70;99.90;;;;;;5078844;28;20958;-66
2022/04/20 06:38:13;;;;;;;1999.90;999.90;;;9.50;99.90;;;;;;5084697;28;20441;-66
2022/04/20 06:40:39;;;;;;;1999.90;999.90;;;9.40;99.90;;;;;;5083760;28;20989;-66
2022/04/20 06:43:07;;;;;;;1999.90;999.90;;;9.30;99.90;;;;;;5093203;28;20448;-67
2022/04/20 06:45:34;;;;;;;1999.90;999.90;;;9.50;99.90;;;;;;5093605;28;20475;-66
2022/04/20 06:48:01;;;;;;;1999.90;999.90;;;9.40;99.90;;;;;;5092635;28;20902;-66
2022/04/20 06:50:28;;;;;;;1999.90;999.90;;;9.50;99.90;;;;;;5092596;28;20476;-69
2022/04/20 06:58:35;;;;;;;1999.90;999.90;;;9.60;99.90;;;;;;5092650;28;20508;-66
2022/04/20 07:01:04;;;;;;;1999.90;999.90;;;9.70;99.90;;;;;;5089859;28;20464;-65
2022/04/20 07:03:31;;;;;;;1999.90;999.90;;;9.90;99.90;;;;;;5091108;28;21022;-66
2022/04/20 07:05:57;;;;;;;1999.90;999.90;;;10.10;99.90;;;;;;5091997;28;20440;-66
2022/04/20 07:08:24;;;;;;;1999.90;999.90;;;9.90;99.90;;;;;;5092661;28;20484;-67
2022/04/20 07:10:51;;;;;;;1999.90;999.90;;;10.10;99.90;;;;;;5092835;28;20465;-67
2022/04/20 07:13:19;;;;;;;1999.90;999.90;;;10.40;99.90;;;;;;5092595;28;20440;-65
2022/04/20 07:15:47;;;;;;;1999.90;999.90;;;10.70;99.90;;;;;;5092134;28;21030;-65
2022/04/20 07:18:14;;;;;;;1999.90;999.90;;;10.80;99.90;;;;;;5092631;28;20440;-65
2022/04/20 07:20:41;;;;;;;1999.90;999.90;;;11.10;99.90;;;;;;5092652;28;20468;-66
2022/04/20 07:23:09;;;;;;;1999.90;999.90;;;11.00;99.90;;;;;;5092178;28;20455;-65
2022/04/20 07:25:36;;;;;;;1999.90;999.90;;;11.20;99.90;;;;;;5092338;28;20494;-66
2022/04/20 07:28:03;;;;;;;1999.90;999.90;;;11.10;99.90;;;;;;5091978;28;20989;-62
2022/04/20 07:30:30;;;;;;;1999.90;999.90;;;11.10;99.90;;;;;;5092001;28;20480;-65
2022/04/20 07:32:58;;;;;;;1999.90;999.90;;;11.20;99.90;;;;;;5091345;28;20505;-66
2022/04/20 07:35:25;;;;;;;1999.90;999.90;;;11.10;99.90;;;;;;5092392;28;20501;-66
2022/04/20 07:37:51;;;;;;;1999.90;999.90;;;10.80;99.90;;;;;;5092250;28;20452;-66
2022/04/20 07:40:18;;;;;;;1999.90;999.90;;;11.10;99.90;;;;;;5091782;28;20464;-66
2022/04/20 07:42:44;;;;;;;1999.90;999.90;;;11.20;99.90;;;;;;5092112;28;20444;-65
2022/04/20 07:45:12;;;;;;;1999.90;999.90;;;11.60;99.90;;;;;;5092416;28;20887;-66
2022/04/20 07:47:38;;;;;;;1999.90;999.90;;;11.70;99.90;;;;;;5092185;28;20914;-66
2022/04/20 07:50:19;;;;;;;1999.90;999.90;;;11.70;99.90;;;;;;5091542;28;20894;-65
2022/04/20 07:52:48;;;;;;;1999.90;999.90;;;11.60;99.90;;;;;;5091823;28;20702;-65
2022/04/20 07:55:17;;;;;;;1999.90;999.90;;;11.50;99.90;;;;;;5092225;28;20448;-65
2022/04/20 07:57:44;;;;;;;1999.90;999.90;;;11.40;99.90;;;;;;5092409;28;20462;-66
2022/04/20 08:00:12;;;;;;;1999.90;999.90;;;11.70;99.90;;;;;;5092094;28;21045;-67
2022/04/20 08:02:39;;;;;;;1999.90;999.90;;;11.70;99.90;;;;;;5091562;28;20452;-66
2022/04/20 08:05:08;;;;;;;1999.90;999.90;;;11.70;99.90;;;;;;5092149;28;20441;-66
2022/04/20 08:07:35;;;;;;;1999.90;999.90;;;11.60;99.90;;;;;;5092371;28;20563;-66
2022/04/20 08:10:03;;;;;;;1999.90;999.90;;;11.60;99.90;;;;;;5091810;28;20882;-66
2022/04/20 08:12:35;;;;;;;1999.90;999.90;;;11.40;99.90;;;;;;5091990;28;20539;-66
2022/04/20 08:15:01;;;;;;;1999.90;999.90;;;11.30;99.90;;;;;;5092578;28;20429;-66
2022/04/20 08:17:28;;;;;;;1999.90;999.90;;;11.50;99.90;;;;;;5092104;28;20565;-66
2022/04/20 08:19:55;;;;;;;1999.90;999.90;;;11.60;99.90;;;;;;5091723;28;20812;-66
2022/04/20 08:22:24;;;;;;;1999.90;999.90;;;11.90;99.90;;;;;;5091617;28;20441;-66
2022/04/20 08:24:51;;;;;;;1999.90;999.90;;;11.90;99.90;;;;;;5091868;28;20543;-65
2022/04/20 08:27:19;;;;;;;1999.90;999.90;;;12.10;99.90;;;;;;5091988;28;20542;-66
2022/04/20 08:29:47;;;;;;;1999.90;999.90;;;11.80;99.90;;;;;;5092192;28;20673;-67
2022/04/20 08:32:14;;;;;;;1999.90;999.90;;;11.70;99.90;;;;;;5091329;28;20823;-67
2022/04/20 08:34:42;;;;;;;1999.90;999.90;;;11.70;99.90;;;;;;5091613;28;20451;-67
2022/04/20 08:37:09;;;;;;;1999.90;999.90;;;11.50;99.90;;;;;;5091973;28;20470;-67
2022/04/20 08:39:38;;;;;;;1999.90;999.90;;;11.20;99.90;;;;;;5091860;28;20535;-67
2022/04/20 08:42:05;;;;;;;1999.90;999.90;;;11.20;99.90;;;;;;5091231;28;20543;-67
2022/04/20 08:44:36;;;;;;;1999.90;999.90;;;11.30;99.90;;;;;;5093896;28;20502;-67
2022/04/20 08:47:05;;;;;;;1999.90;999.90;;;11.50;99.90;;;;;;5095772;28;20444;-67
2022/04/20 08:49:32;;;;;;;1999.90;999.90;;;11.70;99.90;;;;;;5095779;28;20444;-65
2022/04/20 08:54:49;;;;;;;1999.90;999.90;;;12.10;99.90;;;;;;5094981;28;20489;-63
2022/04/20 08:57:19;;;;;;;1999.90;999.90;;;12.50;99.90;;;;;;5095943;28;20443;-65
2022/04/20 08:59:48;;;;;;;1999.90;999.90;;;12.70;99.90;;;;;;5095264;28;20956;-65
2022/04/20 09:02:15;;;;;;;1999.90;999.90;;;12.50;99.90;;;;;;5095624;28;20449;-65
2022/04/20 09:04:42;;;;;;;1999.90;999.90;;;12.30;99.90;;;;;;5095341;28;20447;-66
2022/04/20 09:07:10;;;;;;;1999.90;999.90;;;12.40;99.90;;;;;;5095416;28;20522;-66
2022/04/20 09:09:37;;;;;;;1999.90;999.90;;;12.50;99.90;;;;;;5094686;28;21002;-66
2022/04/20 09:12:10;;;;;;;1999.90;999.90;;;12.60;99.90;;;;;;5094956;28;20490;-66
2022/04/20 09:14:38;;;;;;;1999.90;999.90;;;12.40;99.90;;;;;;5095690;28;20890;-66
2022/04/20 09:17:05;;;;;;;1999.90;999.90;;;12.40;99.90;;;;;;5095787;28;20444;-66
2022/04/20 09:19:31;;;;;;;1999.90;999.90;;;12.30;99.90;;;;;;5095473;28;20444;-66
2022/04/20 09:21:58;;;;;;;1999.90;999.90;;;12.30;99.90;;;;;;5094638;28;20557;-65
2022/04/20 09:24:25;;;;;;;1999.90;999.90;;;12.40;99.90;;;;;;5094016;28;20868;-66
2022/04/20 09:26:53;;;;;;;1999.90;999.90;;;12.60;99.90;;;;;;5094298;28;20460;-66
2022/04/20 09:29:22;;;;;;;1999.90;999.90;;;12.80;99.90;;;;;;5094523;28;20472;-66
2022/04/20 09:31:50;;;;;;;1999.90;999.90;;;12.60;99.90;;;;;;5094279;28;20469;-66
2022/04/20 09:34:36;;;;;;;1999.90;999.90;;;12.60;99.90;;;;;;5093391;28;20937;-66
2022/04/20 09:37:13;;;;;;;1999.90;999.90;;;12.80;99.90;;;;;;5083465;28;20480;-66
2022/04/20 09:39:44;;;;;;;1999.90;999.90;;;12.80;99.90;;;;;;5093334;28;20444;-66
2022/04/20 09:42:11;;;;;;;1999.90;999.90;;;12.90;99.90;;;;;;5093713;28;20478;-66
2022/04/20 09:44:40;;;;;;;1999.90;999.90;;;13.00;99.90;;;;;;5094093;28;20456;-65
2022/04/20 09:49:58;;;;;;;1999.90;999.90;;;12.60;99.90;;;;;;5094796;28;20931;-66
2022/04/20 09:52:25;;;;;;;1999.90;999.90;;;12.60;99.90;;;;;;5094557;28;20453;-66
2022/04/20 09:54:55;;;;;;;1999.90;999.90;;;12.40;99.90;;;;;;5094961;28;20444;-66
2022/04/20 09:57:22;;;;;;;1999.90;999.90;;;12.40;99.90;;;;;;5093505;28;20452;-66
2022/04/20 09:59:58;;;;;;;1999.90;999.90;;;12.20;99.90;;;;;;5094288;28;20452;-65
2022/04/20 10:02:27;;;;;;;1999.90;999.90;;;12.40;99.90;;;;;;5092314;28;20477;-66
2022/04/20 10:04:54;;;;;;;1999.90;999.90;;;12.70;99.90;;;;;;5093977;28;20448;-65
2022/04/20 10:07:20;;;;;;;1999.90;999.90;;;12.70;99.90;;;;;;5099837;28;20916;-66
2022/04/20 10:09:47;;;;;;;1999.90;999.90;;;13.00;99.90;;;;;;5093960;28;20449;-64
2022/04/20 10:12:17;;;;;;;1999.90;999.90;;;13.20;99.90;;;;;;5106679;28;20460;-66
2022/04/20 10:17:37;;;;;;;1999.90;999.90;;;13.60;99.90;;;;;;5093138;28;20436;-65
2022/04/20 10:20:04;;;;;;;1999.90;999.90;;;13.80;99.90;;;;;;5093536;28;20849;-66
2022/04/20 10:22:32;;;;;;;1999.90;999.90;;;13.90;99.90;;;;;;5093155;28;20502;-66
2022/04/20 10:25:01;;;;;;;1999.90;999.90;;;13.70;99.70;;;;;;5093112;28;20866;-65
2022/04/20 10:27:35;;;;;;;1999.90;999.90;;;13.50;99.90;;;;;;5093488;28;20444;-66
2022/04/20 10:30:08;;;;;;;1999.90;999.90;;;13.30;99.90;;;;;;5093122;28;20529;-66
2022/04/20 10:32:49;;;;;;;1999.90;999.90;;;13.40;99.90;;;;;;5092115;28;20441;-64
2022/04/20 10:35:16;;;;;;;1999.90;999.90;;;13.60;99.90;;;;;;5092226;28;20482;-67
2022/04/20 10:38:03;;;;;;;1999.90;999.90;;;13.70;99.90;;;;;;5093192;28;20446;-65
2022/04/20 10:40:30;;;;;;;1999.90;999.90;;;13.80;99.90;;;;;;5092929;28;20484;-66
2022/04/20 10:43:18;;;;;;;1999.90;999.90;;;14.00;99.90;;;;;;5092808;28;20444;-65
2022/04/20 10:46:14;;;;;;;1999.90;999.90;;;14.30;99.90;;;;;;5092745;28;20479;-66
2022/04/20 10:48:49;;;;;;;1999.90;999.90;;;14.40;99.90;;;;;;5093228;28;20558;-66
2022/04/20 10:51:17;;;;;;;1999.90;999.90;;;14.40;99.90;;;;;;5093017;28;20483;-66
2022/04/20 10:53:46;;;;;;;1999.90;999.90;;;14.30;99.90;;;;;;5093090;28;20478;-65
2022/04/20 10:56:13;;;;;;;1999.90;999.90;;;14.30;99.90;;;;;;5094010;28;20448;-65
2022/04/20 10:59:10;;;;;;;1999.90;999.90;;;13.80;99.90;;;;;;5093309;28;20444;-67
2022/04/20 11:02:23;;;;;;;1999.90;999.90;;;13.70;99.90;;;;;;5092295;28;20500;-66
2022/04/20 11:04:50;;;;;;;1999.90;999.90;;;13.70;99.90;;;;;;5045251;28;20875;-67
2022/04/20 11:07:20;;;;;;;1999.90;999.90;;;14.00;99.90;;;;;;5092111;28;20499;-66
2022/04/20 11:10:02;;;;;;;1999.90;999.90;;;14.10;99.90;;;;;;5091970;28;20483;-66
2022/04/20 11:18:43;;;;;;;1999.90;999.90;;;14.80;99.70;;;;;;5068011;28;20979;-68
2022/04/20 11:21:17;;;;;;;1999.90;999.90;;;14.70;98.70;;;;;;5090799;28;20457;-65
2022/04/20 11:23:55;;;;;;;1999.90;999.90;;;14.70;98.20;;;;;;5092552;28;20443;-68
2022/04/20 11:26:24;;;;;;;1999.90;999.90;;;14.60;98.70;;;;;;5112449;28;20538;-64
2022/04/20 11:28:51;;;;;;;1999.90;999.90;;;14.90;98.60;;;;;;5084569;28;20499;-66
2022/04/20 11:31:19;;;;;;;1999.90;999.90;;;15.50;98.60;;;;;;5092193;28;20480;-66
2022/04/20 11:33:46;;;;;;;1999.90;999.90;;;14.90;97.30;;;;;;5091975;28;20485;-66
2022/04/20 11:36:15;;;;;;;1999.90;999.90;;;14.80;97.90;;;;;;5088969;28;20448;-67
2022/04/20 11:38:43;;;;;;;1999.90;999.90;;;14.40;98.50;;;;;;5091549;28;20546;-66
2022/04/20 11:41:10;;;;;;;1999.90;999.90;;;14.30;99.00;;;;;;5092234;28;20981;-67
2022/04/20 11:43:38;;;;;;;1999.90;999.90;;;14.30;99.50;;;;;;5091525;28;20887;-66
2022/04/20 11:46:05;;;;;;;1999.90;999.90;;;14.20;99.50;;;;;;5094958;28;21280;-67
2022/04/20 11:48:32;;;;;;;1999.90;999.90;;;14.20;99.40;;;;;;5091341;28;20475;-66
2022/04/20 11:51:00;;;;;;;1999.90;999.90;;;14.10;99.50;;;;;;5091869;28;20544;-67
2022/04/20 11:53:41;;;;;;;1999.90;999.90;;;14.00;99.90;;;;;;5091633;28;20492;-67
2022/04/20 11:56:10;;;;;;;1999.90;999.90;;;14.30;99.90;;;;;;5092256;28;20452;-67
2022/04/20 11:58:38;;;;;;;1999.90;999.90;;;14.90;98.70;;;;;;5091480;28;20565;-67
2022/04/20 12:01:06;;;;;;;1999.90;999.90;;;15.50;98.10;;;;;;5090934;28;20499;-65
2022/04/20 12:03:36;;;;;;;1999.90;999.90;;;15.60;97.80;;;;;;5091624;28;20448;-68
2022/04/20 12:06:04;;;;;;;1999.90;999.90;;;15.60;97.10;;;;;;5091394;28;20963;-66
2022/04/20 12:08:32;;;;;;;1999.90;999.90;;;15.50;97.90;;;;;;5114507;22;20503;-71
2022/04/20 12:11:04;;;;;;;1999.90;999.90;;;15.00;97.50;;;;;;5087827;28;20497;-70
2022/04/20 12:13:31;;;;;;;1999.90;999.90;;;15.20;97.70;;;;;;5087647;28;20874;-71
2022/04/20 12:16:05;;;;;;;1999.90;999.90;;;14.90;97.10;;;;;;5088067;28;20449;-72
2022/04/20 12:18:36;;;;;;;1999.90;999.90;;;14.80;97.90;;;;;;5088654;28;20505;-70
2022/04/20 12:21:04;;;;;;;1999.90;999.90;;;14.60;97.60;;;;;;5092696;28;20451;-70
2022/04/20 12:23:35;;;;;;;1999.90;999.90;;;14.40;98.00;;;;;;5092693;28;20452;-70
2022/04/20 12:26:07;;;;;;;1999.90;999.90;;;14.30;98.20;;;;;;5095405;28;20855;-70
2022/04/20 12:28:41;;;;;;;1999.90;999.90;;;14.10;98.40;;;;;;5096232;28;20525;-70
2022/04/20 12:31:10;;;;;;;1999.90;999.90;;;13.90;98.50;;;;;;5095209;28;20478;-68
2022/04/20 12:33:38;;;;;;;1999.90;999.90;;;13.80;99.40;;;;;;5091597;28;20502;-69
2022/04/20 12:36:09;;;;;;;1999.90;999.90;;;14.00;99.70;;;;;;5091437;28;20629;-70